Decoded Metar for KM25 ( in ) (IATA:) | Meteo·Mobile Aviation Weather
aviador You're here:

KM25 Decoded Metar

in
Report Time2019-01-17 23:55:00
UTC Time2019-01-18 00:01:44
Flight Rules ifr IFR
Wind330° at 05 kt
W.Rank330° ranks 17
Current wind is below 330° avg. (7.4)
Visibility9999 m
Phenomena:N/A
Clouds:Overcast 006 Hf
Ceiling600 ft
Temp07°C
Dew Point07°C (100% RH)
AAT4.5°C
QNH1018 hPa
Raw Report
METAR KM25 172355Z AUTO 33005KT 10SM OVC006 07/07 A3007 RMK AO2=

Extra information for KM25:More info

Social comments